Simpson, Canada
Current Conditions -  °F | °C
As of 10:26 AM on Friday 19 Dec 2014 (Local Time) from CYXE Reporting Station
Moderate Fog Moderate Fog  
Wind Chill:   Ceiling: 100
Heat Index: 14°   Visibility: 0.25mi
Dew Point: 12°   Wind: 6mph
Humidity: 93%   Direction: 220°SW
Pressure: 29.95"   Gusts: NA
Location:  51.45°N, 105.45°W
Report Text: CYXE 191626Z 22005KT 1/4SM R09/2200FT/N FZFG VV001 M10/M11 A2995 RMK FG8 SLP180
Loading
Personal Weather Stations






























Interactive Weather Map New forecast layout! Learn more

10-Day Weather Forecast

Advertisements
Track Severe Weather on mobile